MTS Valour — MPVV8 — position and weather

sailwx.info

Track history (hours):
 
Tides and Currents Weather Stations Pressure Air Temp Water Temp Dewpoint Dewpoint Depression Visibility Wind Speed Wind Dir Waves Ship Positions

MTS Valour

Last reported at 2015-Feb-01 23:30 UTC. Time now 2015-Feb-02 00:15 UTC.
Position N 53°27' W 003°02'.

Length 24 m; draft 2.2 m.

Type: Tug. MMSI: 235040596.

Date/timePositionNaut miles runAvg speedWind from/ knotsBaromVisibWave heightAir tempDewpointWater temp
2015-Feb-01 23:30N 53°27' W 003°02'0 0.0
2015-Feb-01 22:30N 53°27' W 003°02'0 0.0
2015-Feb-01 21:30N 53°27' W 003°02'1 1.3
2015-Feb-01 20:33N 53°26' W 003°01'0 0.4
2015-Feb-01 19:33N 53°26' W 003°01'1 1.2
2015-Feb-01 18:33N 53°27' W 003°01'0 0.0
2015-Feb-01 17:33N 53°27' W 003°01'0 0.0
2015-Feb-01 16:33N 53°27' W 003°01'0 0.0
2015-Feb-01 15:33N 53°27' W 003°01'0 0.3
2015-Feb-01 14:33N 53°27' W 003°01'1 0.5
2015-Feb-01 13:33N 53°27' W 003°02'0 0.0
2015-Feb-01 12:30N 53°27' W 003°02'0 0.0
2015-Feb-01 11:30N 53°27' W 003°02'0 0.0
2015-Feb-01 10:30N 53°28' W 003°02'0 0.0
2015-Feb-01 09:30N 53°27' W 003°02'0 0.0
2015-Feb-01 08:30N 53°27' W 003°02'0 0.0
2015-Feb-01 07:24N 53°27' W 003°02'0 0.0
2015-Feb-01 06:30N 53°27' W 003°02'0 0.0
2015-Feb-01 05:24N 53°27' W 003°02'0 0.0
2015-Feb-01 04:30N 53°27' W 003°02'0 0.0
2015-Feb-01 03:24N 53°27' W 003°02'0 0.0
2015-Feb-01 02:30N 53°27' W 003°02'0 0.0
2015-Feb-01 01:30N 53°27' W 003°02'0 0.0
2015-Feb-01 00:30N 53°27' W 003°02'0 0.0
2015-Jan-31 23:30N 53°27' W 003°02'0 0.0
2015-Jan-31 22:30N 53°27' W 003°02'0 0.0
2015-Jan-31 21:30N 53°27' W 003°02'0 0.0
2015-Jan-31 20:30N 53°27' W 003°02'0 0.0
2015-Jan-31 19:30N 53°27' W 003°02'0 0.0
2015-Jan-31 18:30N 53°27' W 003°02'0 0.0
2015-Jan-31 17:30N 53°27' W 003°02'0 0.0
2015-Jan-31 16:30N 53°27' W 003°02'0 0.0
2015-Jan-31 15:30N 53°27' W 003°02'0 0.0
2015-Jan-31 14:30N 53°27' W 003°02'0 0.0
2015-Jan-31 13:30N 53°27' W 003°02'0 0.0
2015-Jan-31 12:33N 53°27' W 003°02'1 0.9
2015-Jan-31 11:33N 53°27' W 003°01'0 0.2
2015-Jan-31 10:33N 53°27' W 003°01'4 4.1
2015-Jan-31 09:33N 53°23' W 002°59'2 2.1
2015-Jan-31 08:33N 53°21' W 002°58'0 0.0
2015-Jan-31 07:33N 53°21' W 002°58'0 0.0
2015-Jan-31 06:33N 53°21' W 002°58'0 0.0
2015-Jan-31 05:33N 53°21' W 002°58'0 0.0
2015-Jan-31 04:33N 53°21' W 002°58'0 0.0
2015-Jan-31 03:33N 53°21' W 002°58'0 0.0
2015-Jan-31 02:33N 53°21' W 002°58'0 0.0
2015-Jan-31 01:33N 53°21' W 002°58'0 0.0
2015-Jan-31 00:33N 53°21' W 002°58'0 0.0
2015-Jan-30 23:33N 53°21' W 002°58'0 0.0
2015-Jan-30 22:33N 53°21' W 002°58'0 0.0
2015-Jan-30 21:33N 53°21' W 002°58'0 0.0
2015-Jan-30 20:33N 53°21' W 002°58'0 0.0
2015-Jan-30 19:33N 53°21' W 002°58'0 0.0
2015-Jan-30 18:33N 53°21' W 002°58'0 0.0
2015-Jan-30 17:33N 53°21' W 002°58'0 0.0
2015-Jan-30 16:33N 53°21' W 002°58'0 0.0
2015-Jan-30 15:33N 53°21' W 002°58'0 0.0
2015-Jan-30 14:33N 53°21' W 002°58'0 0.0
2015-Jan-30 13:33N 53°21' W 002°58'0 0.0
2015-Jan-30 12:33N 53°21' W 002°58'0 0.0
2015-Jan-30 11:33N 53°21' W 002°58'0 0.0
2015-Jan-30 10:33N 53°21' W 002°58'0 0.0
2015-Jan-30 09:33N 53°21' W 002°58'0 0.0
2015-Jan-30 08:33N 53°21' W 002°58'0 0.1
2015-Jan-30 07:33N 53°21' W 002°58'0 0.2
2015-Jan-30 06:33N 53°21' W 002°58'6 5.7
2015-Jan-30 05:34N 53°26' W 003°01'1 0.9
2015-Jan-30 04:33N 53°27' W 003°01'0 0.4
2015-Jan-30 03:20N 53°27' W 003°02'0 0.0
2015-Jan-30 02:32N 53°27' W 003°02'0 0.0
2015-Jan-30 01:32N 53°27' W 003°02'0 0.0
2015-Jan-30 00:32N 53°27' W 003°02'0 0.0
2015-Jan-29 23:32N 53°27' W 003°02'0 0.0
2015-Jan-29 22:32N 53°27' W 003°02'0 0.0
2015-Jan-29 21:32N 53°27' W 003°02'0 0.0
2015-Jan-29 20:32N 53°27' W 003°02'0 0.0
2015-Jan-29 19:32N 53°27' W 003°02'0 0.0
2015-Jan-29 18:32N 53°27' W 003°02'1 1.0
2015-Jan-29 17:33N 53°27' W 003°01'1 0.6
2015-Jan-29 16:29N 53°26' W 002°60'0 0.0
2015-Jan-29 15:29N 53°26' W 002°60'0 0.0
2015-Jan-29 14:29N 53°26' W 002°60'0 0.0
2015-Jan-29 13:29N 53°26' W 002°60'0 0.0
2015-Jan-29 12:29N 53°26' W 002°60'0 0.0
2015-Jan-29 11:29N 53°26' W 002°60'0 0.0
2015-Jan-29 10:29N 53°26' W 002°60'0 0.0
2015-Jan-29 09:29N 53°26' W 002°60'0 0.0
2015-Jan-29 08:29N 53°26' W 002°60'0 0.0
2015-Jan-29 07:29N 53°26' W 002°60'0 0.0
2015-Jan-29 06:29N 53°26' W 002°60'0 0.0
2015-Jan-29 05:29N 53°26' W 002°60'0 0.0
2015-Jan-29 04:29N 53°26' W 002°60'0 0.0
2015-Jan-29 03:29N 53°26' W 002°60'0 0.0
2015-Jan-29 02:29N 53°26' W 002°60'0 0.0
2015-Jan-29 01:29N 53°26' W 002°60'0 0.0
2015-Jan-29 00:29N 53°26' W 002°60'0 0.0
2015-Jan-28 23:29N 53°26' W 002°60'0 0.0
2015-Jan-28 22:33N 53°26' W 002°60'0 0.0
2015-Jan-28 21:33N 53°26' W 002°60'2 1.6
2015-Jan-28 20:30N 53°27' W 003°02'0 0.0
2015-Jan-28 19:30N 53°27' W 003°02'0 0.0
2015-Jan-28 18:30N 53°27' W 003°02'0 0.0
2015-Jan-28 17:33N 53°27' W 003°02'0 0.0
2015-Jan-28 16:30N 53°27' W 003°02'0 0.0
2015-Jan-28 15:30N 53°27' W 003°02'0 0.0
2015-Jan-28 14:30N 53°27' W 003°02'0 0.0
2015-Jan-28 13:18N 53°27' W 003°02'0 0.0
2015-Jan-28 12:30N 53°27' W 003°02'0 0.0
2015-Jan-28 11:30N 53°27' W 003°02'0 0.0
2015-Jan-28 10:30N 53°27' W 003°02'0 0.0
2015-Jan-28 09:33N 53°27' W 003°02'0 0.1
2015-Jan-28 08:33N 53°27' W 003°02'0 0.0
2015-Jan-28 07:33N 53°27' W 003°02'0 0.0
2015-Jan-28 06:33N 53°27' W 003°02'0 0.0
2015-Jan-28 05:33N 53°27' W 003°02'0 0.0
2015-Jan-28 04:33N 53°27' W 003°02'0 0.0
2015-Jan-28 03:33N 53°27' W 003°02'0 0.0
2015-Jan-28 02:33N 53°27' W 003°02'0 0.0
2015-Jan-28 01:33N 53°27' W 003°02'0 0.0
2015-Jan-28 00:33N 53°27' W 003°02'0 0.0
2015-Jan-27 23:33N 53°27' W 003°02'0 0.0
2015-Jan-27 22:33N 53°27' W 003°02'0 0.1
2015-Jan-27 21:33N 53°27' W 003°02'1 1.2
2015-Jan-27 20:33N 53°26' W 003°01'1 0.9
2015-Jan-27 19:33N 53°27' W 003°01'0 0.0
2015-Jan-27 18:33N 53°27' W 003°01'0 0.1
2015-Jan-27 17:33N 53°27' W 003°02'0 0.3
2015-Jan-27 16:33N 53°27' W 003°01'0 0.4
2015-Jan-27 15:33N 53°27' W 003°02'0 0.0
2015-Jan-27 14:33N 53°27' W 003°02'0 0.4
2015-Jan-27 13:33N 53°27' W 003°01'1 0.6
2015-Jan-27 12:33N 53°27' W 003°02'0 0.0
2015-Jan-27 11:27N 53°27' W 003°02'0 0.0
2015-Jan-27 10:33N 53°27' W 003°02'0 0.0
2015-Jan-27 09:33N 53°27' W 003°02'0 0.0
2015-Jan-27 08:33N 53°27' W 003°02'0 0.0
2015-Jan-27 07:33N 53°27' W 003°02'0 0.0
2015-Jan-27 06:33N 53°27' W 003°02'0 0.0
2015-Jan-27 05:33N 53°27' W 003°02'0 0.0
2015-Jan-27 04:27N 53°27' W 003°02'0 0.0
2015-Jan-27 03:33N 53°27' W 003°02'0 0.0
2015-Jan-27 02:33N 53°27' W 003°02'0 0.0
2015-Jan-27 01:33N 53°27' W 003°02'0 0.0
2015-Jan-27 00:27N 53°27' W 003°02'0 0.0
2015-Jan-26 23:33N 53°27' W 003°02'0 0.0
2015-Jan-26 22:33N 53°27' W 003°02'1 1.2
2015-Jan-26 21:33N 53°26' W 003°01'1 0.9
2015-Jan-26 20:33N 53°27' W 003°01'0 0.0
2015-Jan-26 19:33N 53°27' W 003°01'0 0.3
2015-Jan-26 18:34N 53°27' W 003°01'0 0.1
2015-Jan-26 17:33N 53°27' W 003°02'0 0.0
2015-Jan-26 16:33N 53°27' W 003°02'0 0.0
2015-Jan-26 15:33N 53°27' W 003°02'0 0.0
2015-Jan-26 14:33N 53°27' W 003°02'1 1.1
2015-Jan-26 13:33N 53°26' W 003°01'1 0.7
2015-Jan-26 12:33N 53°27' W 003°01'0 0.0
2015-Jan-26 11:33N 53°27' W 003°01'0 0.5
2015-Jan-26 10:30N 53°27' W 003°01'0 0.1
2015-Jan-26 09:30N 53°27' W 003°02'0 0.0
2015-Jan-26 08:30N 53°27' W 003°02'0 0.1
2015-Jan-26 07:32N 53°27' W 003°02'0 0.0
2015-Jan-26 06:32N 53°27' W 003°02'0 0.0
2015-Jan-26 05:32N 53°27' W 003°02'0 0.0
2015-Jan-26 04:32N 53°27' W 003°02'0 0.0
2015-Jan-26 03:32N 53°27' W 003°02'0 0.0
2015-Jan-26 02:32N 53°27' W 003°02'0 0.0
2015-Jan-26 01:32N 53°27' W 003°02'0 0.0
2015-Jan-26 00:32N 53°27' W 003°02'0 0.0
2015-Jan-25 23:32N 53°27' W 003°02'0 0.0
2015-Jan-25 22:32N 53°27' W 003°02'0 0.0
2015-Jan-25 21:32N 53°27' W 003°02'0 0.0
2015-Jan-25 20:32N 53°27' W 003°02'0 0.0
2015-Jan-25 19:32N 53°27' W 003°02'0 0.0
2015-Jan-25 18:32N 53°27' W 003°02'0 0.0
2015-Jan-25 17:32N 53°27' W 003°02'0 0.0
2015-Jan-25 16:33N 53°27' W 003°02'0 0.0
2015-Jan-25 15:33N 53°27' W 003°02'1 0.8
2015-Jan-25 14:33N 53°27' W 003°01'0 0.4
2015-Jan-25 13:34N 53°27' W 003°01'0 0.2
2015-Jan-25 12:33N 53°27' W 003°02'0 0.1
2015-Jan-25 11:33N 53°27' W 003°01'0 0.2
2015-Jan-25 10:33N 53°27' W 003°01'0 0.0
2015-Jan-25 09:33N 53°27' W 003°01'0 0.0
2015-Jan-25 08:33N 53°27' W 003°01'0 0.2
2015-Jan-25 07:33N 53°27' W 003°01'1 0.5
2015-Jan-25 06:30N 53°27' W 003°02'0 0.0
2015-Jan-25 05:30N 53°27' W 003°02'0 0.0
2015-Jan-25 04:30N 53°27' W 003°02'0 0.0
2015-Jan-25 03:30N 53°27' W 003°02'0 0.0
2015-Jan-25 02:30N 53°27' W 003°02'0 0.0
2015-Jan-25 01:30N 53°27' W 003°02'0 0.0
2015-Jan-25 00:18N 53°27' W 003°02'0 0.0
2015-Jan-24 23:24N 53°27' W 003°02'0 0.0
2015-Jan-24 22:30N 53°27' W 003°02'0 0.0
2015-Jan-24 21:30N 53°27' W 003°02'0 0.0
2015-Jan-24 20:30N 53°27' W 003°02'0 0.0
2015-Jan-24 19:24N 53°27' W 003°02'0 0.0
2015-Jan-24 18:30N 53°27' W 003°02'0 0.0
2015-Jan-24 17:30N 53°27' W 003°02'0 0.0
2015-Jan-24 16:30N 53°27' W 003°02'0 0.0
2015-Jan-24 15:30N 53°27' W 003°02'2 1.8
2015-Jan-24 14:32N 53°26' W 002°60'0 0.0
2015-Jan-24 13:26N 53°26' W 002°60'0 0.0
2015-Jan-24 12:26N 53°26' W 002°60'0 0.0
2015-Jan-24 11:32N 53°26' W 002°60'0 0.0
2015-Jan-24 10:32N 53°26' W 002°60'2 1.7
2015-Jan-24 09:30N 53°27' W 003°02'0 0.0
2015-Jan-24 08:30N 53°27' W 003°02'0 0.0
2015-Jan-24 07:30N 53°27' W 003°02'0 0.0
2015-Jan-24 06:30N 53°27' W 003°02'0 0.0
2015-Jan-24 05:30N 53°27' W 003°02'0 0.0
2015-Jan-24 04:24N 53°27' W 003°02'0 0.0
2015-Jan-24 03:30N 53°27' W 003°02'0 0.0
2015-Jan-24 02:30N 53°27' W 003°02'0 0.0
2015-Jan-24 01:18N 53°27' W 003°02'0 0.0
2015-Jan-24 00:30N 53°27' W 003°02'0 0.0
2015-Jan-23 23:30N 53°27' W 003°02'0 0.0
2015-Jan-23 22:30N 53°27' W 003°02'0 0.0
2015-Jan-23 21:30N 53°27' W 003°02'0 0.0
2015-Jan-23 20:30N 53°27' W 003°02'0 0.0
2015-Jan-23 19:30N 53°27' W 003°02'0 0.0
2015-Jan-23 18:30N 53°27' W 003°02'0 0.0
2015-Jan-23 17:30N 53°27' W 003°02'0 0.0
2015-Jan-23 16:30N 53°27' W 003°02'0 0.0
2015-Jan-23 15:30N 53°27' W 003°02'0 0.0
2015-Jan-23 14:30N 53°27' W 003°02'0 0.0
2015-Jan-23 13:18N 53°27' W 003°02'0 0.0
2015-Jan-23 12:30N 53°27' W 003°02'0 0.0
2015-Jan-23 11:30N 53°27' W 003°02'0 0.0
2015-Jan-23 10:30N 53°27' W 003°02'1 0.6
2015-Jan-23 09:33N 53°27' W 003°01'0 0.3
2015-Jan-23 08:33N 53°27' W 003°01'0 0.0
2015-Jan-23 07:33N 53°27' W 003°01'0 0.0
2015-Jan-23 06:33N 53°27' W 003°01'0 0.2
2015-Jan-23 05:28N 53°27' W 003°01'1 0.5
2015-Jan-23 04:28N 53°27' W 003°02'0 0.0
2015-Jan-23 03:22N 53°27' W 003°02'0 0.0
2015-Jan-23 02:16N 53°27' W 003°02'0 0.0
2015-Jan-23 01:33N 53°27' W 003°02'1 1.2
2015-Jan-23 00:33N 53°26' W 003°01'0 0.0
2015-Jan-22 23:33N 53°26' W 003°01'  
Track history (hours):
 
Tides and Currents Weather Stations Pressure Air Temp Water Temp Dewpoint Dewpoint Depression Visibility Wind Speed Wind Dir Waves Ship Positions

MTS Valour

Last reported at 2015-Feb-01 23:30 UTC. Time now 2015-Feb-02 00:15 UTC.
Position N 53°27' W 003°02'.

Length 24 m; draft 2.2 m.

Type: Tug. MMSI: 235040596.

Date/timePositionNaut miles runAvg speedWind from/ knotsBaromVisibWave heightAir tempDewpointWater temp
2015-Feb-01 23:30N 53°27' W 003°02'0 0.0
2015-Feb-01 22:30N 53°27' W 003°02'0 0.0
2015-Feb-01 21:30N 53°27' W 003°02'1 1.3
2015-Feb-01 20:33N 53°26' W 003°01'0 0.4
2015-Feb-01 19:33N 53°26' W 003°01'1 1.2
2015-Feb-01 18:33N 53°27' W 003°01'0 0.0
2015-Feb-01 17:33N 53°27' W 003°01'0 0.0
2015-Feb-01 16:33N 53°27' W 003°01'0 0.0
2015-Feb-01 15:33N 53°27' W 003°01'0 0.3
2015-Feb-01 14:33N 53°27' W 003°01'1 0.5
2015-Feb-01 13:33N 53°27' W 003°02'0 0.0
2015-Feb-01 12:30N 53°27' W 003°02'0 0.0
2015-Feb-01 11:30N 53°27' W 003°02'0 0.0
2015-Feb-01 10:30N 53°28' W 003°02'0 0.0
2015-Feb-01 09:30N 53°27' W 003°02'0 0.0
2015-Feb-01 08:30N 53°27' W 003°02'0 0.0
2015-Feb-01 07:24N 53°27' W 003°02'0 0.0
2015-Feb-01 06:30N 53°27' W 003°02'0 0.0
2015-Feb-01 05:24N 53°27' W 003°02'0 0.0
2015-Feb-01 04:30N 53°27' W 003°02'0 0.0
2015-Feb-01 03:24N 53°27' W 003°02'0 0.0
2015-Feb-01 02:30N 53°27' W 003°02'0 0.0
2015-Feb-01 01:30N 53°27' W 003°02'0 0.0
2015-Feb-01 00:30N 53°27' W 003°02'0 0.0
2015-Jan-31 23:30N 53°27' W 003°02'0 0.0
2015-Jan-31 22:30N 53°27' W 003°02'0 0.0
2015-Jan-31 21:30N 53°27' W 003°02'0 0.0
2015-Jan-31 20:30N 53°27' W 003°02'0 0.0
2015-Jan-31 19:30N 53°27' W 003°02'0 0.0
2015-Jan-31 18:30N 53°27' W 003°02'0 0.0
2015-Jan-31 17:30N 53°27' W 003°02'0 0.0
2015-Jan-31 16:30N 53°27' W 003°02'0 0.0
2015-Jan-31 15:30N 53°27' W 003°02'0 0.0
2015-Jan-31 14:30N 53°27' W 003°02'0 0.0
2015-Jan-31 13:30N 53°27' W 003°02'0 0.0
2015-Jan-31 12:33N 53°27' W 003°02'1 0.9
2015-Jan-31 11:33N 53°27' W 003°01'0 0.2
2015-Jan-31 10:33N 53°27' W 003°01'4 4.1
2015-Jan-31 09:33N 53°23' W 002°59'2 2.1
2015-Jan-31 08:33N 53°21' W 002°58'0 0.0
2015-Jan-31 07:33N 53°21' W 002°58'0 0.0
2015-Jan-31 06:33N 53°21' W 002°58'0 0.0
2015-Jan-31 05:33N 53°21' W 002°58'0 0.0
2015-Jan-31 04:33N 53°21' W 002°58'0 0.0
2015-Jan-31 03:33N 53°21' W 002°58'0 0.0
2015-Jan-31 02:33N 53°21' W 002°58'0 0.0
2015-Jan-31 01:33N 53°21' W 002°58'0 0.0
2015-Jan-31 00:33N 53°21' W 002°58'0 0.0
2015-Jan-30 23:33N 53°21' W 002°58'0 0.0
2015-Jan-30 22:33N 53°21' W 002°58'0 0.0
2015-Jan-30 21:33N 53°21' W 002°58'0 0.0
2015-Jan-30 20:33N 53°21' W 002°58'0 0.0
2015-Jan-30 19:33N 53°21' W 002°58'0 0.0
2015-Jan-30 18:33N 53°21' W 002°58'0 0.0
2015-Jan-30 17:33N 53°21' W 002°58'0 0.0
2015-Jan-30 16:33N 53°21' W 002°58'0 0.0
2015-Jan-30 15:33N 53°21' W 002°58'0 0.0
2015-Jan-30 14:33N 53°21' W 002°58'0 0.0
2015-Jan-30 13:33N 53°21' W 002°58'0 0.0
2015-Jan-30 12:33N 53°21' W 002°58'0 0.0
2015-Jan-30 11:33N 53°21' W 002°58'0 0.0
2015-Jan-30 10:33N 53°21' W 002°58'0 0.0
2015-Jan-30 09:33N 53°21' W 002°58'0 0.0
2015-Jan-30 08:33N 53°21' W 002°58'0 0.1
2015-Jan-30 07:33N 53°21' W 002°58'0 0.2
2015-Jan-30 06:33N 53°21' W 002°58'6 5.7
2015-Jan-30 05:34N 53°26' W 003°01'1 0.9
2015-Jan-30 04:33N 53°27' W 003°01'0 0.4
2015-Jan-30 03:20N 53°27' W 003°02'0 0.0
2015-Jan-30 02:32N 53°27' W 003°02'0 0.0
2015-Jan-30 01:32N 53°27' W 003°02'0 0.0
2015-Jan-30 00:32N 53°27' W 003°02'0 0.0
2015-Jan-29 23:32N 53°27' W 003°02'0 0.0
2015-Jan-29 22:32N 53°27' W 003°02'0 0.0
2015-Jan-29 21:32N 53°27' W 003°02'0 0.0
2015-Jan-29 20:32N 53°27' W 003°02'0 0.0
2015-Jan-29 19:32N 53°27' W 003°02'0 0.0
2015-Jan-29 18:32N 53°27' W 003°02'1 1.0
2015-Jan-29 17:33N 53°27' W 003°01'1 0.6
2015-Jan-29 16:29N 53°26' W 002°60'0 0.0
2015-Jan-29 15:29N 53°26' W 002°60'0 0.0
2015-Jan-29 14:29N 53°26' W 002°60'0 0.0
2015-Jan-29 13:29N 53°26' W 002°60'0 0.0
2015-Jan-29 12:29N 53°26' W 002°60'0 0.0
2015-Jan-29 11:29N 53°26' W 002°60'0 0.0
2015-Jan-29 10:29N 53°26' W 002°60'0 0.0
2015-Jan-29 09:29N 53°26' W 002°60'0 0.0
2015-Jan-29 08:29N 53°26' W 002°60'0 0.0
2015-Jan-29 07:29N 53°26' W 002°60'0 0.0
2015-Jan-29 06:29N 53°26' W 002°60'0 0.0
2015-Jan-29 05:29N 53°26' W 002°60'0 0.0
2015-Jan-29 04:29N 53°26' W 002°60'0 0.0
2015-Jan-29 03:29N 53°26' W 002°60'0 0.0
2015-Jan-29 02:29N 53°26' W 002°60'0 0.0
2015-Jan-29 01:29N 53°26' W 002°60'0 0.0
2015-Jan-29 00:29N 53°26' W 002°60'0 0.0
2015-Jan-28 23:29N 53°26' W 002°60'0 0.0
2015-Jan-28 22:33N 53°26' W 002°60'0 0.0
2015-Jan-28 21:33N 53°26' W 002°60'2 1.6
2015-Jan-28 20:30N 53°27' W 003°02'0 0.0
2015-Jan-28 19:30N 53°27' W 003°02'0 0.0
2015-Jan-28 18:30N 53°27' W 003°02'0 0.0
2015-Jan-28 17:33N 53°27' W 003°02'0 0.0
2015-Jan-28 16:30N 53°27' W 003°02'0 0.0
2015-Jan-28 15:30N 53°27' W 003°02'0 0.0
2015-Jan-28 14:30N 53°27' W 003°02'0 0.0
2015-Jan-28 13:18N 53°27' W 003°02'0 0.0
2015-Jan-28 12:30N 53°27' W 003°02'0 0.0
2015-Jan-28 11:30N 53°27' W 003°02'0 0.0
2015-Jan-28 10:30N 53°27' W 003°02'0 0.0
2015-Jan-28 09:33N 53°27' W 003°02'0 0.1
2015-Jan-28 08:33N 53°27' W 003°02'0 0.0
2015-Jan-28 07:33N 53°27' W 003°02'0 0.0
2015-Jan-28 06:33N 53°27' W 003°02'0 0.0
2015-Jan-28 05:33N 53°27' W 003°02'0 0.0
2015-Jan-28 04:33N 53°27' W 003°02'0 0.0
2015-Jan-28 03:33N 53°27' W 003°02'0 0.0
2015-Jan-28 02:33N 53°27' W 003°02'0 0.0
2015-Jan-28 01:33N 53°27' W 003°02'0 0.0
2015-Jan-28 00:33N 53°27' W 003°02'0 0.0
2015-Jan-27 23:33N 53°27' W 003°02'0 0.0
2015-Jan-27 22:33N 53°27' W 003°02'0 0.1
2015-Jan-27 21:33N 53°27' W 003°02'1 1.2
2015-Jan-27 20:33N 53°26' W 003°01'1 0.9
2015-Jan-27 19:33N 53°27' W 003°01'0 0.0
2015-Jan-27 18:33N 53°27' W 003°01'0 0.1
2015-Jan-27 17:33N 53°27' W 003°02'0 0.3
2015-Jan-27 16:33N 53°27' W 003°01'0 0.4
2015-Jan-27 15:33N 53°27' W 003°02'0 0.0
2015-Jan-27 14:33N 53°27' W 003°02'0 0.4
2015-Jan-27 13:33N 53°27' W 003°01'1 0.6
2015-Jan-27 12:33N 53°27' W 003°02'0 0.0
2015-Jan-27 11:27N 53°27' W 003°02'0 0.0
2015-Jan-27 10:33N 53°27' W 003°02'0 0.0
2015-Jan-27 09:33N 53°27' W 003°02'0 0.0
2015-Jan-27 08:33N 53°27' W 003°02'0 0.0
2015-Jan-27 07:33N 53°27' W 003°02'0 0.0
2015-Jan-27 06:33N 53°27' W 003°02'0 0.0
2015-Jan-27 05:33N 53°27' W 003°02'0 0.0
2015-Jan-27 04:27N 53°27' W 003°02'0 0.0
2015-Jan-27 03:33N 53°27' W 003°02'0 0.0
2015-Jan-27 02:33N 53°27' W 003°02'0 0.0
2015-Jan-27 01:33N 53°27' W 003°02'0 0.0
2015-Jan-27 00:27N 53°27' W 003°02'0 0.0
2015-Jan-26 23:33N 53°27' W 003°02'0 0.0
2015-Jan-26 22:33N 53°27' W 003°02'1 1.2
2015-Jan-26 21:33N 53°26' W 003°01'1 0.9
2015-Jan-26 20:33N 53°27' W 003°01'0 0.0
2015-Jan-26 19:33N 53°27' W 003°01'0 0.3
2015-Jan-26 18:34N 53°27' W 003°01'0 0.1
2015-Jan-26 17:33N 53°27' W 003°02'0 0.0
2015-Jan-26 16:33N 53°27' W 003°02'0 0.0
2015-Jan-26 15:33N 53°27' W 003°02'0 0.0
2015-Jan-26 14:33N 53°27' W 003°02'1 1.1
2015-Jan-26 13:33N 53°26' W 003°01'1 0.7
2015-Jan-26 12:33N 53°27' W 003°01'0 0.0
2015-Jan-26 11:33N 53°27' W 003°01'0 0.5
2015-Jan-26 10:30N 53°27' W 003°01'0 0.1
2015-Jan-26 09:30N 53°27' W 003°02'0 0.0
2015-Jan-26 08:30N 53°27' W 003°02'0 0.1
2015-Jan-26 07:32N 53°27' W 003°02'0 0.0
2015-Jan-26 06:32N 53°27' W 003°02'0 0.0
2015-Jan-26 05:32N 53°27' W 003°02'0 0.0
2015-Jan-26 04:32N 53°27' W 003°02'0 0.0
2015-Jan-26 03:32N 53°27' W 003°02'0 0.0
2015-Jan-26 02:32N 53°27' W 003°02'0 0.0
2015-Jan-26 01:32N 53°27' W 003°02'0 0.0
2015-Jan-26 00:32N 53°27' W 003°02'0 0.0
2015-Jan-25 23:32N 53°27' W 003°02'0 0.0
2015-Jan-25 22:32N 53°27' W 003°02'0 0.0
2015-Jan-25 21:32N 53°27' W 003°02'0 0.0
2015-Jan-25 20:32N 53°27' W 003°02'0 0.0
2015-Jan-25 19:32N 53°27' W 003°02'0 0.0
2015-Jan-25 18:32N 53°27' W 003°02'0 0.0
2015-Jan-25 17:32N 53°27' W 003°02'0 0.0
2015-Jan-25 16:33N 53°27' W 003°02'0 0.0
2015-Jan-25 15:33N 53°27' W 003°02'1 0.8
2015-Jan-25 14:33N 53°27' W 003°01'0 0.4
2015-Jan-25 13:34N 53°27' W 003°01'0 0.2
2015-Jan-25 12:33N 53°27' W 003°02'0 0.1
2015-Jan-25 11:33N 53°27' W 003°01'0 0.2
2015-Jan-25 10:33N 53°27' W 003°01'0 0.0
2015-Jan-25 09:33N 53°27' W 003°01'0 0.0
2015-Jan-25 08:33N 53°27' W 003°01'0 0.2
2015-Jan-25 07:33N 53°27' W 003°01'1 0.5
2015-Jan-25 06:30N 53°27' W 003°02'0 0.0
2015-Jan-25 05:30N 53°27' W 003°02'0 0.0
2015-Jan-25 04:30N 53°27' W 003°02'0 0.0
2015-Jan-25 03:30N 53°27' W 003°02'0 0.0
2015-Jan-25 02:30N 53°27' W 003°02'0 0.0
2015-Jan-25 01:30N 53°27' W 003°02'0 0.0
2015-Jan-25 00:18N 53°27' W 003°02'0 0.0
2015-Jan-24 23:24N 53°27' W 003°02'0 0.0
2015-Jan-24 22:30N 53°27' W 003°02'0 0.0
2015-Jan-24 21:30N 53°27' W 003°02'0 0.0
2015-Jan-24 20:30N 53°27' W 003°02'0 0.0
2015-Jan-24 19:24N 53°27' W 003°02'0 0.0
2015-Jan-24 18:30N 53°27' W 003°02'0 0.0
2015-Jan-24 17:30N 53°27' W 003°02'0 0.0
2015-Jan-24 16:30N 53°27' W 003°02'0 0.0
2015-Jan-24 15:30N 53°27' W 003°02'2 1.8
2015-Jan-24 14:32N 53°26' W 002°60'0 0.0
2015-Jan-24 13:26N 53°26' W 002°60'0 0.0
2015-Jan-24 12:26N 53°26' W 002°60'0 0.0
2015-Jan-24 11:32N 53°26' W 002°60'0 0.0
2015-Jan-24 10:32N 53°26' W 002°60'2 1.7
2015-Jan-24 09:30N 53°27' W 003°02'0 0.0
2015-Jan-24 08:30N 53°27' W 003°02'0 0.0
2015-Jan-24 07:30N 53°27' W 003°02'0 0.0
2015-Jan-24 06:30N 53°27' W 003°02'0 0.0
2015-Jan-24 05:30N 53°27' W 003°02'0 0.0
2015-Jan-24 04:24N 53°27' W 003°02'0 0.0
2015-Jan-24 03:30N 53°27' W 003°02'0 0.0
2015-Jan-24 02:30N 53°27' W 003°02'0 0.0
2015-Jan-24 01:18N 53°27' W 003°02'0 0.0
2015-Jan-24 00:30N 53°27' W 003°02'0 0.0
2015-Jan-23 23:30N 53°27' W 003°02'0 0.0
2015-Jan-23 22:30N 53°27' W 003°02'0 0.0
2015-Jan-23 21:30N 53°27' W 003°02'0 0.0
2015-Jan-23 20:30N 53°27' W 003°02'0 0.0
2015-Jan-23 19:30N 53°27' W 003°02'0 0.0
2015-Jan-23 18:30N 53°27' W 003°02'0 0.0
2015-Jan-23 17:30N 53°27' W 003°02'0 0.0
2015-Jan-23 16:30N 53°27' W 003°02'0 0.0
2015-Jan-23 15:30N 53°27' W 003°02'0 0.0
2015-Jan-23 14:30N 53°27' W 003°02'0 0.0
2015-Jan-23 13:18N 53°27' W 003°02'0 0.0
2015-Jan-23 12:30N 53°27' W 003°02'0 0.0
2015-Jan-23 11:30N 53°27' W 003°02'0 0.0
2015-Jan-23 10:30N 53°27' W 003°02'1 0.6
2015-Jan-23 09:33N 53°27' W 003°01'0 0.3
2015-Jan-23 08:33N 53°27' W 003°01'0 0.0
2015-Jan-23 07:33N 53°27' W 003°01'0 0.0
2015-Jan-23 06:33N 53°27' W 003°01'0 0.2
2015-Jan-23 05:28N 53°27' W 003°01'1 0.5
2015-Jan-23 04:28N 53°27' W 003°02'0 0.0
2015-Jan-23 03:22N 53°27' W 003°02'0 0.0
2015-Jan-23 02:16N 53°27' W 003°02'0 0.0
2015-Jan-23 01:33N 53°27' W 003°02'1 1.2
2015-Jan-23 00:33N 53°26' W 003°01'0 0.0
2015-Jan-22 23:33N 53°26' W 003°01'  

Dump ship's entire track history